sensor_id;sensor_type;location;lat;lon;timestamp;P1;durP1;ratioP1;P2;durP2;ratioP2
74624;SDS011;63131;52.298;8.056;2022-09-29T00:01:18;13.03;;;6.13;;
74624;SDS011;63131;52.298;8.056;2022-09-29T00:03:43;12.30;;;5.60;;
74624;SDS011;63131;52.298;8.056;2022-09-29T00:06:13;13.50;;;5.90;;
74624;SDS011;63131;52.298;8.056;2022-09-29T00:08:39;13.52;;;5.72;;
74624;SDS011;63131;52.298;8.056;2022-09-29T00:11:08;12.03;;;5.27;;
74624;SDS011;63131;52.298;8.056;2022-09-29T00:13:34;10.95;;;5.22;;
74624;SDS011;63131;52.298;8.056;2022-09-29T00:16:00;13.38;;;5.30;;
74624;SDS011;63131;52.298;8.056;2022-09-29T00:18:26;12.52;;;5.72;;
74624;SDS011;63131;52.298;8.056;2022-09-29T00:20:55;10.93;;;4.78;;
74624;SDS011;63131;52.298;8.056;2022-09-29T00:23:22;10.90;;;4.68;;
74624;SDS011;63131;52.298;8.056;2022-09-29T00:25:47;10.30;;;5.18;;
74624;SDS011;63131;52.298;8.056;2022-09-29T00:28:13;12.20;;;6.10;;
74624;SDS011;63131;52.298;8.056;2022-09-29T00:30:38;11.80;;;5.70;;
74624;SDS011;63131;52.298;8.056;2022-09-29T00:33:03;10.70;;;5.37;;
74624;SDS011;63131;52.298;8.056;2022-09-29T00:35:28;10.87;;;5.70;;
74624;SDS011;63131;52.298;8.056;2022-09-29T00:37:53;8.93;;;4.47;;
74624;SDS011;63131;52.298;8.056;2022-09-29T00:40:18;12.17;;;5.70;;
74624;SDS011;63131;52.298;8.056;2022-09-29T00:42:44;12.20;;;5.33;;
74624;SDS011;63131;52.298;8.056;2022-09-29T00:47:41;13.75;;;5.55;;
74624;SDS011;63131;52.298;8.056;2022-09-29T00:50:17;11.65;;;4.82;;
74624;SDS011;63131;52.298;8.056;2022-09-29T00:52:45;9.38;;;4.72;;
74624;SDS011;63131;52.298;8.056;2022-09-29T00:55:21;10.35;;;4.45;;
74624;SDS011;63131;52.298;8.056;2022-09-29T00:57:50;10.23;;;4.80;;
74624;SDS011;63131;52.298;8.056;2022-09-29T01:00:16;10.45;;;5.40;;
74624;SDS011;63131;52.298;8.056;2022-09-29T01:02:43;11.90;;;5.38;;
74624;SDS011;63131;52.298;8.056;2022-09-29T01:05:11;10.50;;;4.95;;
74624;SDS011;63131;52.298;8.056;2022-09-29T01:07:39;10.93;;;5.47;;
74624;SDS011;63131;52.298;8.056;2022-09-29T01:10:04;12.20;;;5.20;;
74624;SDS011;63131;52.298;8.056;2022-09-29T01:12:30;11.40;;;5.63;;
74624;SDS011;63131;52.298;8.056;2022-09-29T01:14:56;11.63;;;5.18;;
74624;SDS011;63131;52.298;8.056;2022-09-29T01:17:21;12.03;;;5.67;;
74624;SDS011;63131;52.298;8.056;2022-09-29T01:19:52;11.85;;;5.28;;
74624;SDS011;63131;52.298;8.056;2022-09-29T01:23:26;11.60;;;5.47;;
74624;SDS011;63131;52.298;8.056;2022-09-29T01:30:18;11.32;;;5.05;;
74624;SDS011;63131;52.298;8.056;2022-09-29T01:35:15;12.13;;;5.63;;
74624;SDS011;63131;52.298;8.056;2022-09-29T01:37:55;12.57;;;5.78;;
74624;SDS011;63131;52.298;8.056;2022-09-29T01:45:29;11.83;;;4.63;;
74624;SDS011;63131;52.298;8.056;2022-09-29T01:47:57;11.23;;;4.80;;
74624;SDS011;63131;52.298;8.056;2022-09-29T01:50:43;10.60;;;5.47;;
74624;SDS011;63131;52.298;8.056;2022-09-29T01:53:14;11.85;;;5.15;;
74624;SDS011;63131;52.298;8.056;2022-09-29T01:55:46;10.48;;;4.72;;
74624;SDS011;63131;52.298;8.056;2022-09-29T01:58:14;9.88;;;4.38;;
74624;SDS011;63131;52.298;8.056;2022-09-29T02:00:42;12.27;;;5.18;;
74624;SDS011;63131;52.298;8.056;2022-09-29T02:03:12;9.70;;;4.80;;
74624;SDS011;63131;52.298;8.056;2022-09-29T02:05:40;11.18;;;5.10;;
74624;SDS011;63131;52.298;8.056;2022-09-29T02:08:12;10.60;;;5.13;;
74624;SDS011;63131;52.298;8.056;2022-09-29T02:10:40;12.45;;;5.45;;
74624;SDS011;63131;52.298;8.056;2022-09-29T02:13:06;13.30;;;5.05;;
74624;SDS011;63131;52.298;8.056;2022-09-29T02:15:34;11.30;;;4.88;;
74624;SDS011;63131;52.298;8.056;2022-09-29T02:18:02;11.05;;;4.95;;
74624;SDS011;63131;52.298;8.056;2022-09-29T02:20:31;11.23;;;4.63;;
74624;SDS011;63131;52.298;8.056;2022-09-29T02:22:56;10.35;;;4.63;;
74624;SDS011;63131;52.298;8.056;2022-09-29T02:25:22;11.47;;;4.90;;
74624;SDS011;63131;52.298;8.056;2022-09-29T02:27:47;11.85;;;4.95;;
74624;SDS011;63131;52.298;8.056;2022-09-29T02:30:14;11.15;;;4.95;;
74624;SDS011;63131;52.298;8.056;2022-09-29T02:32:39;10.93;;;4.53;;
74624;SDS011;63131;52.298;8.056;2022-09-29T02:35:05;9.87;;;4.50;;
74624;SDS011;63131;52.298;8.056;2022-09-29T02:44:59;10.68;;;4.93;;
74624;SDS011;63131;52.298;8.056;2022-09-29T02:58:06;10.27;;;4.50;;
74624;SDS011;63131;52.298;8.056;2022-09-29T03:00:33;10.05;;;4.00;;
74624;SDS011;63131;52.298;8.056;2022-09-29T03:02:59;10.50;;;4.43;;
74624;SDS011;63131;52.298;8.056;2022-09-29T03:05:24;9.70;;;4.17;;
74624;SDS011;63131;52.298;8.056;2022-09-29T03:07:50;11.52;;;4.32;;
74624;SDS011;63131;52.298;8.056;2022-09-29T03:10:15;10.13;;;4.93;;
74624;SDS011;63131;52.298;8.056;2022-09-29T03:12:40;9.80;;;4.30;;
74624;SDS011;63131;52.298;8.056;2022-09-29T03:15:06;10.07;;;3.80;;
74624;SDS011;63131;52.298;8.056;2022-09-29T03:17:31;11.25;;;5.55;;
74624;SDS011;63131;52.298;8.056;2022-09-29T03:19:57;9.57;;;4.03;;
74624;SDS011;63131;52.298;8.056;2022-09-29T03:22:22;11.07;;;4.53;;
74624;SDS011;63131;52.298;8.056;2022-09-29T03:24:47;11.70;;;4.70;;
74624;SDS011;63131;52.298;8.056;2022-09-29T03:27:12;10.82;;;4.95;;
74624;SDS011;63131;52.298;8.056;2022-09-29T03:29:38;9.57;;;4.72;;
74624;SDS011;63131;52.298;8.056;2022-09-29T03:32:03;10.87;;;4.73;;
74624;SDS011;63131;52.298;8.056;2022-09-29T03:34:29;12.10;;;4.22;;
74624;SDS011;63131;52.298;8.056;2022-09-29T03:36:54;9.20;;;3.87;;
74624;SDS011;63131;52.298;8.056;2022-09-29T03:39:20;9.40;;;4.07;;
74624;SDS011;63131;52.298;8.056;2022-09-29T03:41:45;8.67;;;3.80;;
74624;SDS011;63131;52.298;8.056;2022-09-29T03:44:11;9.73;;;4.55;;
74624;SDS011;63131;52.298;8.056;2022-09-29T03:46:36;11.23;;;4.47;;
74624;SDS011;63131;52.298;8.056;2022-09-29T03:49:01;9.73;;;4.17;;
74624;SDS011;63131;52.298;8.056;2022-09-29T03:51:27;10.87;;;4.40;;
74624;SDS011;63131;52.298;8.056;2022-09-29T03:53:53;10.27;;;4.47;;
74624;SDS011;63131;52.298;8.056;2022-09-29T03:56:18;12.07;;;4.32;;
74624;SDS011;63131;52.298;8.056;2022-09-29T03:58:43;9.70;;;4.10;;
74624;SDS011;63131;52.298;8.056;2022-09-29T04:01:08;11.50;;;5.03;;
74624;SDS011;63131;52.298;8.056;2022-09-29T04:03:33;9.83;;;4.10;;
74624;SDS011;63131;52.298;8.056;2022-09-29T04:05:59;10.87;;;4.63;;
74624;SDS011;63131;52.298;8.056;2022-09-29T04:08:24;9.83;;;4.13;;
74624;SDS011;63131;52.298;8.056;2022-09-29T04:10:49;10.90;;;4.63;;
74624;SDS011;63131;52.298;8.056;2022-09-29T04:13:14;9.00;;;3.80;;
74624;SDS011;63131;52.298;8.056;2022-09-29T04:15:40;9.60;;;4.22;;
74624;SDS011;63131;52.298;8.056;2022-09-29T04:18:05;10.83;;;4.23;;
74624;SDS011;63131;52.298;8.056;2022-09-29T04:20:30;10.10;;;4.45;;
74624;SDS011;63131;52.298;8.056;2022-09-29T04:22:55;9.93;;;4.27;;
74624;SDS011;63131;52.298;8.056;2022-09-29T04:25:21;10.47;;;4.40;;
74624;SDS011;63131;52.298;8.056;2022-09-29T04:27:46;9.83;;;4.63;;
74624;SDS011;63131;52.298;8.056;2022-09-29T04:30:11;10.50;;;4.60;;
74624;SDS011;63131;52.298;8.056;2022-09-29T04:32:36;12.73;;;4.78;;
74624;SDS011;63131;52.298;8.056;2022-09-29T04:35:02;11.18;;;4.80;;
74624;SDS011;63131;52.298;8.056;2022-09-29T04:37:27;9.95;;;4.88;;
74624;SDS011;63131;52.298;8.056;2022-09-29T04:39:53;10.20;;;4.67;;
74624;SDS011;63131;52.298;8.056;2022-09-29T04:42:18;12.98;;;5.55;;
74624;SDS011;63131;52.298;8.056;2022-09-29T04:44:44;11.63;;;5.25;;
74624;SDS011;63131;52.298;8.056;2022-09-29T04:47:09;12.23;;;5.13;;
74624;SDS011;63131;52.298;8.056;2022-09-29T04:49:34;9.97;;;4.37;;
74624;SDS011;63131;52.298;8.056;2022-09-29T04:51:59;10.23;;;5.30;;
74624;SDS011;63131;52.298;8.056;2022-09-29T04:54:28;9.75;;;4.65;;
74624;SDS011;63131;52.298;8.056;2022-09-29T04:56:53;12.70;;;5.88;;
74624;SDS011;63131;52.298;8.056;2022-09-29T04:59:18;10.03;;;4.73;;
74624;SDS011;63131;52.298;8.056;2022-09-29T05:01:44;13.63;;;5.40;;
74624;SDS011;63131;52.298;8.056;2022-09-29T05:04:09;10.93;;;5.13;;
74624;SDS011;63131;52.298;8.056;2022-09-29T05:06:34;11.57;;;5.35;;
74624;SDS011;63131;52.298;8.056;2022-09-29T05:09:03;12.60;;;5.68;;
74624;SDS011;63131;52.298;8.056;2022-09-29T05:11:28;12.23;;;4.85;;
74624;SDS011;63131;52.298;8.056;2022-09-29T05:13:54;11.43;;;5.20;;
74624;SDS011;63131;52.298;8.056;2022-09-29T05:16:19;12.10;;;5.20;;
74624;SDS011;63131;52.298;8.056;2022-09-29T05:18:44;10.03;;;4.97;;
74624;SDS011;63131;52.298;8.056;2022-09-29T05:21:09;12.70;;;5.27;;
74624;SDS011;63131;52.298;8.056;2022-09-29T05:23:34;11.20;;;5.67;;
74624;SDS011;63131;52.298;8.056;2022-09-29T05:26:01;12.83;;;5.63;;
74624;SDS011;63131;52.298;8.056;2022-09-29T05:28:26;10.85;;;5.28;;
74624;SDS011;63131;52.298;8.056;2022-09-29T05:30:51;10.63;;;4.90;;
74624;SDS011;63131;52.298;8.056;2022-09-29T05:33:16;11.57;;;4.73;;
74624;SDS011;63131;52.298;8.056;2022-09-29T05:35:41;10.93;;;5.17;;
74624;SDS011;63131;52.298;8.056;2022-09-29T05:38:08;12.18;;;5.20;;
74624;SDS011;63131;52.298;8.056;2022-09-29T05:40:34;11.00;;;5.07;;
74624;SDS011;63131;52.298;8.056;2022-09-29T05:43:01;12.20;;;5.43;;
74624;SDS011;63131;52.298;8.056;2022-09-29T05:45:26;12.40;;;5.60;;
74624;SDS011;63131;52.298;8.056;2022-09-29T05:47:52;13.32;;;5.88;;
74624;SDS011;63131;52.298;8.056;2022-09-29T05:50:18;12.30;;;5.57;;
74624;SDS011;63131;52.298;8.056;2022-09-29T05:52:44;12.63;;;5.70;;
74624;SDS011;63131;52.298;8.056;2022-09-29T05:55:13;13.00;;;6.05;;
74624;SDS011;63131;52.298;8.056;2022-09-29T05:57:38;12.43;;;5.20;;
74624;SDS011;63131;52.298;8.056;2022-09-29T06:00:03;11.77;;;5.93;;
74624;SDS011;63131;52.298;8.056;2022-09-29T06:02:29;11.07;;;4.95;;
74624;SDS011;63131;52.298;8.056;2022-09-29T06:04:54;11.40;;;5.57;;
74624;SDS011;63131;52.298;8.056;2022-09-29T06:07:19;14.27;;;5.70;;
74624;SDS011;63131;52.298;8.056;2022-09-29T06:09:45;13.20;;;5.93;;
74624;SDS011;63131;52.298;8.056;2022-09-29T06:12:11;12.85;;;6.30;;
74624;SDS011;63131;52.298;8.056;2022-09-29T06:14:36;12.10;;;6.17;;
74624;SDS011;63131;52.298;8.056;2022-09-29T06:17:02;12.87;;;6.63;;
74624;SDS011;63131;52.298;8.056;2022-09-29T06:19:27;12.33;;;6.17;;
74624;SDS011;63131;52.298;8.056;2022-09-29T06:21:52;14.40;;;6.50;;
74624;SDS011;63131;52.298;8.056;2022-09-29T06:24:17;14.77;;;6.90;;
74624;SDS011;63131;52.298;8.056;2022-09-29T06:26:42;15.20;;;7.27;;
74624;SDS011;63131;52.298;8.056;2022-09-29T06:29:08;18.97;;;7.87;;
74624;SDS011;63131;52.298;8.056;2022-09-29T06:31:33;17.97;;;8.17;;
74624;SDS011;63131;52.298;8.056;2022-09-29T06:33:59;18.25;;;7.82;;
74624;SDS011;63131;52.298;8.056;2022-09-29T06:39:14;20.90;;;8.15;;
74624;SDS011;63131;52.298;8.056;2022-09-29T06:41:40;24.60;;;9.55;;
74624;SDS011;63131;52.298;8.056;2022-09-29T06:44:05;27.38;;;11.05;;
74624;SDS011;63131;52.298;8.056;2022-09-29T06:46:31;25.35;;;10.15;;
74624;SDS011;63131;52.298;8.056;2022-09-29T06:48:56;30.40;;;10.77;;
74624;SDS011;63131;52.298;8.056;2022-09-29T06:51:23;22.17;;;10.02;;
74624;SDS011;63131;52.298;8.056;2022-09-29T06:56:13;19.60;;;8.65;;
74624;SDS011;63131;52.298;8.056;2022-09-29T06:58:38;21.20;;;11.10;;
74624;SDS011;63131;52.298;8.056;2022-09-29T07:01:04;24.73;;;12.35;;
74624;SDS011;63131;52.298;8.056;2022-09-29T07:03:30;22.77;;;11.70;;
74624;SDS011;63131;52.298;8.056;2022-09-29T07:05:55;24.15;;;11.35;;
74624;SDS011;63131;52.298;8.056;2022-09-29T07:08:20;22.63;;;11.27;;
74624;SDS011;63131;52.298;8.056;2022-09-29T07:10:46;21.67;;;12.40;;
74624;SDS011;63131;52.298;8.056;2022-09-29T07:13:12;23.55;;;12.73;;
74624;SDS011;63131;52.298;8.056;2022-09-29T07:15:37;22.27;;;11.45;;
74624;SDS011;63131;52.298;8.056;2022-09-29T07:18:02;24.73;;;12.20;;
74624;SDS011;63131;52.298;8.056;2022-09-29T07:20:28;22.92;;;12.02;;
74624;SDS011;63131;52.298;8.056;2022-09-29T07:22:54;27.13;;;13.30;;
74624;SDS011;63131;52.298;8.056;2022-09-29T07:25:19;24.13;;;11.77;;
74624;SDS011;63131;52.298;8.056;2022-09-29T07:27:45;28.60;;;14.57;;
74624;SDS011;63131;52.298;8.056;2022-09-29T07:30:10;27.40;;;13.57;;
74624;SDS011;63131;52.298;8.056;2022-09-29T07:32:35;25.40;;;12.48;;
74624;SDS011;63131;52.298;8.056;2022-09-29T07:35:00;26.10;;;13.53;;
74624;SDS011;63131;52.298;8.056;2022-09-29T07:37:26;28.03;;;13.97;;
74624;SDS011;63131;52.298;8.056;2022-09-29T07:39:52;25.60;;;12.65;;
74624;SDS011;63131;52.298;8.056;2022-09-29T07:42:19;27.65;;;14.45;;
74624;SDS011;63131;52.298;8.056;2022-09-29T07:44:45;31.35;;;15.73;;
74624;SDS011;63131;52.298;8.056;2022-09-29T07:47:10;27.43;;;13.50;;
74624;SDS011;63131;52.298;8.056;2022-09-29T07:49:35;27.63;;;13.20;;
74624;SDS011;63131;52.298;8.056;2022-09-29T07:52:00;27.70;;;13.87;;
74624;SDS011;63131;52.298;8.056;2022-09-29T07:54:26;29.87;;;14.27;;
74624;SDS011;63131;52.298;8.056;2022-09-29T07:56:51;32.40;;;16.33;;
74624;SDS011;63131;52.298;8.056;2022-09-29T07:59:16;30.57;;;15.53;;
74624;SDS011;63131;52.298;8.056;2022-09-29T08:01:42;28.33;;;16.27;;
74624;SDS011;63131;52.298;8.056;2022-09-29T08:04:07;28.70;;;13.68;;
74624;SDS011;63131;52.298;8.056;2022-09-29T08:06:32;33.70;;;17.08;;
74624;SDS011;63131;52.298;8.056;2022-09-29T08:08:58;29.67;;;14.17;;
74624;SDS011;63131;52.298;8.056;2022-09-29T08:11:23;28.67;;;14.48;;
74624;SDS011;63131;52.298;8.056;2022-09-29T08:13:50;25.27;;;12.73;;
74624;SDS011;63131;52.298;8.056;2022-09-29T08:16:16;26.90;;;15.48;;
74624;SDS011;63131;52.298;8.056;2022-09-29T08:18:42;29.90;;;15.00;;
74624;SDS011;63131;52.298;8.056;2022-09-29T08:21:07;30.88;;;15.88;;
74624;SDS011;63131;52.298;8.056;2022-09-29T08:23:36;26.70;;;14.45;;
74624;SDS011;63131;52.298;8.056;2022-09-29T08:26:05;27.02;;;14.48;;
74624;SDS011;63131;52.298;8.056;2022-09-29T08:28:32;30.48;;;14.68;;
74624;SDS011;63131;52.298;8.056;2022-09-29T08:31:00;27.85;;;15.00;;
74624;SDS011;63131;52.298;8.056;2022-09-29T08:33:26;25.80;;;13.07;;
74624;SDS011;63131;52.298;8.056;2022-09-29T08:35:54;27.07;;;12.97;;
74624;SDS011;63131;52.298;8.056;2022-09-29T08:38:20;26.52;;;14.75;;
74624;SDS011;63131;52.298;8.056;2022-09-29T08:40:45;22.17;;;11.80;;
74624;SDS011;63131;52.298;8.056;2022-09-29T08:43:13;24.60;;;11.73;;
74624;SDS011;63131;52.298;8.056;2022-09-29T08:45:40;19.27;;;10.95;;
74624;SDS011;63131;52.298;8.056;2022-09-29T08:48:19;22.75;;;11.63;;
74624;SDS011;63131;52.298;8.056;2022-09-29T08:50:55;21.27;;;10.68;;
74624;SDS011;63131;52.298;8.056;2022-09-29T08:53:21;22.40;;;11.93;;
74624;SDS011;63131;52.298;8.056;2022-09-29T08:58:13;19.83;;;10.60;;
74624;SDS011;63131;52.298;8.056;2022-09-29T09:00:50;20.60;;;11.02;;
74624;SDS011;63131;52.298;8.056;2022-09-29T09:06:05;21.25;;;9.30;;
74624;SDS011;63131;52.298;8.056;2022-09-29T09:13:49;16.13;;;8.83;;
74624;SDS011;63131;52.298;8.056;2022-09-29T09:18:50;18.50;;;10.00;;
74624;SDS011;63131;52.298;8.056;2022-09-29T09:21:22;19.65;;;10.00;;
74624;SDS011;63131;52.298;8.056;2022-09-29T09:23:56;18.88;;;10.13;;
74624;SDS011;63131;52.298;8.056;2022-09-29T09:26:24;18.90;;;10.07;;
74624;SDS011;63131;52.298;8.056;2022-09-29T09:31:44;17.75;;;9.50;;
74624;SDS011;63131;52.298;8.056;2022-09-29T09:34:19;15.70;;;7.90;;
74624;SDS011;63131;52.298;8.056;2022-09-29T09:36:47;19.75;;;9.10;;
74624;SDS011;63131;52.298;8.056;2022-09-29T09:39:20;17.98;;;8.70;;
74624;SDS011;63131;52.298;8.056;2022-09-29T09:41:47;16.00;;;7.80;;
74624;SDS011;63131;52.298;8.056;2022-09-29T09:44:21;16.70;;;7.75;;
74624;SDS011;63131;52.298;8.056;2022-09-29T09:49:38;14.77;;;6.80;;
74624;SDS011;63131;52.298;8.056;2022-09-29T09:54:33;19.77;;;7.63;;
74624;SDS011;63131;52.298;8.056;2022-09-29T09:59:57;17.23;;;6.47;;
74624;SDS011;63131;52.298;8.056;2022-09-29T10:02:24;15.70;;;6.88;;
74624;SDS011;63131;52.298;8.056;2022-09-29T10:04:50;13.27;;;6.13;;
74624;SDS011;63131;52.298;8.056;2022-09-29T10:07:20;17.13;;;6.50;;
74624;SDS011;63131;52.298;8.056;2022-09-29T10:09:46;15.35;;;6.70;;
74624;SDS011;63131;52.298;8.056;2022-09-29T10:12:15;12.55;;;5.90;;
74624;SDS011;63131;52.298;8.056;2022-09-29T10:14:44;13.00;;;6.53;;
74624;SDS011;63131;52.298;8.056;2022-09-29T10:17:12;14.20;;;5.60;;
74624;SDS011;63131;52.298;8.056;2022-09-29T10:19:55;15.30;;;6.30;;
74624;SDS011;63131;52.298;8.056;2022-09-29T10:22:21;13.98;;;6.03;;
74624;SDS011;63131;52.298;8.056;2022-09-29T10:24:47;13.27;;;6.32;;
74624;SDS011;63131;52.298;8.056;2022-09-29T10:27:19;12.57;;;5.60;;
74624;SDS011;63131;52.298;8.056;2022-09-29T10:29:46;14.00;;;5.95;;
74624;SDS011;63131;52.298;8.056;2022-09-29T10:32:29;11.20;;;4.90;;
74624;SDS011;63131;52.298;8.056;2022-09-29T10:37:41;11.48;;;5.13;;
74624;SDS011;63131;52.298;8.056;2022-09-29T10:42:35;11.03;;;3.93;;
74624;SDS011;63131;52.298;8.056;2022-09-29T10:45:11;9.73;;;4.55;;
74624;SDS011;63131;52.298;8.056;2022-09-29T10:47:38;9.40;;;4.15;;
74624;SDS011;63131;52.298;8.056;2022-09-29T10:50:07;8.98;;;3.40;;
74624;SDS011;63131;52.298;8.056;2022-09-29T10:52:35;10.85;;;3.92;;
74624;SDS011;63131;52.298;8.056;2022-09-29T10:57:30;10.75;;;4.40;;
74624;SDS011;63131;52.298;8.056;2022-09-29T10:59:56;9.02;;;4.15;;
74624;SDS011;63131;52.298;8.056;2022-09-29T11:04:47;9.33;;;4.27;;
74624;SDS011;63131;52.298;8.056;2022-09-29T11:07:12;11.68;;;4.07;;
74624;SDS011;63131;52.298;8.056;2022-09-29T11:12:03;9.23;;;3.10;;
74624;SDS011;63131;52.298;8.056;2022-09-29T11:16:54;7.25;;;2.80;;
74624;SDS011;63131;52.298;8.056;2022-09-29T11:19:20;8.77;;;3.55;;
74624;SDS011;63131;52.298;8.056;2022-09-29T11:27:26;8.60;;;3.72;;
74624;SDS011;63131;52.298;8.056;2022-09-29T11:30:05;6.35;;;2.38;;
74624;SDS011;63131;52.298;8.056;2022-09-29T11:40:18;6.50;;;2.25;;
74624;SDS011;63131;52.298;8.056;2022-09-29T11:57:44;8.40;;;3.25;;
74624;SDS011;63131;52.298;8.056;2022-09-29T12:00:15;8.65;;;3.28;;
74624;SDS011;63131;52.298;8.056;2022-09-29T12:08:16;9.10;;;3.00;;
74624;SDS011;63131;52.298;8.056;2022-09-29T12:13:24;7.60;;;3.20;;
74624;SDS011;63131;52.298;8.056;2022-09-29T12:16:01;7.45;;;3.00;;
74624;SDS011;63131;52.298;8.056;2022-09-29T12:21:14;5.30;;;2.00;;
74624;SDS011;63131;52.298;8.056;2022-09-29T12:23:41;7.75;;;3.28;;
74624;SDS011;63131;52.298;8.056;2022-09-29T12:26:18;8.05;;;3.47;;
74624;SDS011;63131;52.298;8.056;2022-09-29T12:28:47;6.53;;;2.60;;
74624;SDS011;63131;52.298;8.056;2022-09-29T12:31:48;9.05;;;3.25;;
74624;SDS011;63131;52.298;8.056;2022-09-29T12:34:17;6.25;;;2.28;;
74624;SDS011;63131;52.298;8.056;2022-09-29T12:36:48;7.72;;;3.20;;
74624;SDS011;63131;52.298;8.056;2022-09-29T12:39:35;7.65;;;2.70;;
74624;SDS011;63131;52.298;8.056;2022-09-29T12:44:36;7.53;;;2.65;;
74624;SDS011;63131;52.298;8.056;2022-09-29T12:47:08;8.48;;;3.10;;
74624;SDS011;63131;52.298;8.056;2022-09-29T12:52:23;9.10;;;2.75;;
74624;SDS011;63131;52.298;8.056;2022-09-29T12:54:54;7.35;;;3.20;;
74624;SDS011;63131;52.298;8.056;2022-09-29T12:57:22;8.55;;;2.70;;
74624;SDS011;63131;52.298;8.056;2022-09-29T13:00:00;7.10;;;3.00;;
74624;SDS011;63131;52.298;8.056;2022-09-29T13:10:04;7.90;;;2.90;;
74624;SDS011;63131;52.298;8.056;2022-09-29T13:15:07;9.57;;;2.92;;
74624;SDS011;63131;52.298;8.056;2022-09-29T13:20:10;7.97;;;3.10;;
74624;SDS011;63131;52.298;8.056;2022-09-29T13:22:50;8.52;;;3.53;;
74624;SDS011;63131;52.298;8.056;2022-09-29T13:25:27;8.30;;;3.45;;
74624;SDS011;63131;52.298;8.056;2022-09-29T13:27:57;6.93;;;3.05;;
74624;SDS011;63131;52.298;8.056;2022-09-29T13:30:25;10.15;;;3.80;;
74624;SDS011;63131;52.298;8.056;2022-09-29T13:32:59;7.47;;;2.92;;
74624;SDS011;63131;52.298;8.056;2022-09-29T13:35:25;7.10;;;3.13;;
74624;SDS011;63131;52.298;8.056;2022-09-29T13:40:26;8.95;;;3.70;;
74624;SDS011;63131;52.298;8.056;2022-09-29T13:42:58;8.00;;;3.50;;
74624;SDS011;63131;52.298;8.056;2022-09-29T13:58:24;9.20;;;3.42;;
74624;SDS011;63131;52.298;8.056;2022-09-29T14:00:50;9.82;;;4.05;;
74624;SDS011;63131;52.298;8.056;2022-09-29T14:06:17;7.85;;;3.28;;
74624;SDS011;63131;52.298;8.056;2022-09-29T14:13:38;8.87;;;3.80;;
74624;SDS011;63131;52.298;8.056;2022-09-29T14:16:14;8.32;;;3.65;;
74624;SDS011;63131;52.298;8.056;2022-09-29T14:27:13;8.95;;;3.63;;
74624;SDS011;63131;52.298;8.056;2022-09-29T14:29:42;8.63;;;4.15;;
74624;SDS011;63131;52.298;8.056;2022-09-29T14:32:13;7.97;;;3.50;;
74624;SDS011;63131;52.298;8.056;2022-09-29T14:34:42;7.82;;;3.72;;
74624;SDS011;63131;52.298;8.056;2022-09-29T14:39:33;7.47;;;3.57;;
74624;SDS011;63131;52.298;8.056;2022-09-29T14:59:48;10.13;;;4.97;;
74624;SDS011;63131;52.298;8.056;2022-09-29T15:02:23;7.85;;;4.13;;
74624;SDS011;63131;52.298;8.056;2022-09-29T15:04:50;8.38;;;4.53;;
74624;SDS011;63131;52.298;8.056;2022-09-29T15:09:45;9.18;;;4.75;;
74624;SDS011;63131;52.298;8.056;2022-09-29T15:12:14;9.57;;;4.20;;
74624;SDS011;63131;52.298;8.056;2022-09-29T15:14:40;9.60;;;4.90;;
74624;SDS011;63131;52.298;8.056;2022-09-29T15:19:39;9.00;;;4.85;;
74624;SDS011;63131;52.298;8.056;2022-09-29T15:27:18;9.65;;;5.18;;
74624;SDS011;63131;52.298;8.056;2022-09-29T15:29:45;9.65;;;5.05;;
74624;SDS011;63131;52.298;8.056;2022-09-29T15:32:15;9.25;;;5.50;;
74624;SDS011;63131;52.298;8.056;2022-09-29T15:34:43;10.25;;;5.00;;
74624;SDS011;63131;52.298;8.056;2022-09-29T15:42:09;10.10;;;5.13;;
74624;SDS011;63131;52.298;8.056;2022-09-29T15:44:38;9.25;;;4.97;;
74624;SDS011;63131;52.298;8.056;2022-09-29T15:47:09;9.38;;;5.03;;
74624;SDS011;63131;52.298;8.056;2022-09-29T15:49:48;11.25;;;5.35;;
74624;SDS011;63131;52.298;8.056;2022-09-29T15:52:15;9.30;;;5.95;;
74624;SDS011;63131;52.298;8.056;2022-09-29T15:54:42;10.40;;;5.15;;
74624;SDS011;63131;52.298;8.056;2022-09-29T15:57:28;11.05;;;5.93;;
74624;SDS011;63131;52.298;8.056;2022-09-29T16:02:45;10.80;;;5.03;;
74624;SDS011;63131;52.298;8.056;2022-09-29T16:05:13;9.20;;;5.20;;
74624;SDS011;63131;52.298;8.056;2022-09-29T16:07:40;10.55;;;5.07;;
74624;SDS011;63131;52.298;8.056;2022-09-29T16:10:15;12.63;;;5.45;;
74624;SDS011;63131;52.298;8.056;2022-09-29T16:12:45;11.52;;;6.00;;
74624;SDS011;63131;52.298;8.056;2022-09-29T16:15:15;10.93;;;5.47;;
74624;SDS011;63131;52.298;8.056;2022-09-29T16:17:46;12.10;;;6.07;;
74624;SDS011;63131;52.298;8.056;2022-09-29T16:20:13;10.07;;;5.60;;
74624;SDS011;63131;52.298;8.056;2022-09-29T16:22:39;10.30;;;6.05;;
74624;SDS011;63131;52.298;8.056;2022-09-29T16:27:44;12.80;;;5.93;;
74624;SDS011;63131;52.298;8.056;2022-09-29T16:30:17;9.77;;;5.68;;
74624;SDS011;63131;52.298;8.056;2022-09-29T16:32:44;9.63;;;5.68;;
74624;SDS011;63131;52.298;8.056;2022-09-29T16:35:55;11.77;;;5.72;;
74624;SDS011;63131;52.298;8.056;2022-09-29T16:37:55;10.25;;;5.97;;
74624;SDS011;63131;52.298;8.056;2022-09-29T16:42:50;10.48;;;5.90;;
74624;SDS011;63131;52.298;8.056;2022-09-29T16:45:16;10.75;;;5.40;;
74624;SDS011;63131;52.298;8.056;2022-09-29T16:50:12;8.90;;;5.35;;
74624;SDS011;63131;52.298;8.056;2022-09-29T16:52:44;13.88;;;6.05;;
74624;SDS011;63131;52.298;8.056;2022-09-29T16:57:38;11.45;;;5.47;;
74624;SDS011;63131;52.298;8.056;2022-09-29T17:00:15;10.52;;;5.90;;
74624;SDS011;63131;52.298;8.056;2022-09-29T17:02:41;11.10;;;6.18;;
74624;SDS011;63131;52.298;8.056;2022-09-29T17:05:07;11.20;;;5.90;;
74624;SDS011;63131;52.298;8.056;2022-09-29T17:07:32;11.87;;;6.63;;
74624;SDS011;63131;52.298;8.056;2022-09-29T17:10:02;9.90;;;5.65;;
74624;SDS011;63131;52.298;8.056;2022-09-29T17:12:28;11.55;;;6.65;;
74624;SDS011;63131;52.298;8.056;2022-09-29T17:14:53;11.23;;;5.82;;
74624;SDS011;63131;52.298;8.056;2022-09-29T17:17:19;12.13;;;5.90;;
74624;SDS011;63131;52.298;8.056;2022-09-29T17:19:46;11.68;;;5.93;;
74624;SDS011;63131;52.298;8.056;2022-09-29T17:22:28;11.02;;;6.00;;
74624;SDS011;63131;52.298;8.056;2022-09-29T17:24:54;10.23;;;6.57;;
74624;SDS011;63131;52.298;8.056;2022-09-29T17:27:19;11.63;;;6.05;;
74624;SDS011;63131;52.298;8.056;2022-09-29T17:30:03;14.20;;;7.05;;
74624;SDS011;63131;52.298;8.056;2022-09-29T17:32:29;11.55;;;6.47;;
74624;SDS011;63131;52.298;8.056;2022-09-29T17:34:54;12.80;;;7.33;;
74624;SDS011;63131;52.298;8.056;2022-09-29T17:37:19;11.37;;;6.57;;
74624;SDS011;63131;52.298;8.056;2022-09-29T17:39:44;12.10;;;5.97;;
74624;SDS011;63131;52.298;8.056;2022-09-29T17:42:10;10.10;;;5.83;;
74624;SDS011;63131;52.298;8.056;2022-09-29T17:44:35;11.75;;;7.15;;
74624;SDS011;63131;52.298;8.056;2022-09-29T17:47:03;12.68;;;7.20;;
74624;SDS011;63131;52.298;8.056;2022-09-29T17:49:29;11.48;;;5.75;;
74624;SDS011;63131;52.298;8.056;2022-09-29T17:51:54;11.20;;;6.25;;
74624;SDS011;63131;52.298;8.056;2022-09-29T17:54:19;12.13;;;6.57;;
74624;SDS011;63131;52.298;8.056;2022-09-29T17:56:50;10.88;;;6.68;;
74624;SDS011;63131;52.298;8.056;2022-09-29T17:59:15;12.27;;;7.13;;
74624;SDS011;63131;52.298;8.056;2022-09-29T18:01:41;12.88;;;8.00;;
74624;SDS011;63131;52.298;8.056;2022-09-29T18:04:06;12.93;;;9.30;;
74624;SDS011;63131;52.298;8.056;2022-09-29T18:06:32;14.73;;;9.65;;
74624;SDS011;63131;52.298;8.056;2022-09-29T18:09:01;11.95;;;9.13;;
74624;SDS011;63131;52.298;8.056;2022-09-29T18:11:26;13.90;;;7.90;;
74624;SDS011;63131;52.298;8.056;2022-09-29T18:13:51;16.20;;;11.03;;